Time;durP1;ratioP1;P1;durP2;ratioP2;P2;SDS_P1;SDS_P2;PMS_P1;PMS_P2;Temp;Humidity;BMP_temperature;BMP_pressure;BME280_temperature;BME280_humidity;BME280_pressure;Samples;Min_cycle;Max_cycle;Signal;HPM_P1;HPM_P2
2023/07/29 00:02:04;;;;;;;2.60;1.20;;;22.20;90.30;;;;;;5073503;28;20201;-72
2023/07/29 00:04:31;;;;;;;1.13;1.03;;;22.30;90.30;;;;;;5063286;28;20198;-72
2023/07/29 00:06:58;;;;;;;1.17;1.07;;;22.20;90.30;;;;;;5053367;28;20670;-72
2023/07/29 00:09:25;;;;;;;1.23;1.17;;;22.20;90.40;;;;;;5052890;28;20226;-73
2023/07/29 00:11:53;;;;;;;1.30;1.20;;;22.20;90.60;;;;;;5053947;28;20205;-73
2023/07/29 00:14:20;;;;;;;2.20;1.40;;;22.20;90.60;;;;;;5053652;28;20551;-72
2023/07/29 00:16:47;;;;;;;4.30;1.37;;;22.20;90.70;;;;;;5064516;28;20201;-73
2023/07/29 00:19:14;;;;;;;1.30;1.20;;;22.20;90.70;;;;;;5073214;28;20708;-73
2023/07/29 00:21:41;;;;;;;1.97;1.20;;;22.20;90.80;;;;;;5073630;28;20319;-73
2023/07/29 00:24:07;;;;;;;2.37;1.30;;;22.20;90.80;;;;;;5073825;28;20201;-73
2023/07/29 00:26:35;;;;;;;1.87;1.20;;;22.20;90.70;;;;;;5073160;28;20200;-73
2023/07/29 00:29:03;;;;;;;2.10;1.20;;;22.20;90.70;;;;;;5073376;28;20572;-73
2023/07/29 00:31:30;;;;;;;2.13;1.23;;;22.20;90.70;;;;;;5073142;28;20228;-72
2023/07/29 00:33:58;;;;;;;2.13;1.00;;;22.20;90.70;;;;;;5066902;28;20229;-72
2023/07/29 00:36:24;;;;;;;2.93;1.23;;;22.20;90.70;;;;;;5052733;28;20226;-72
2023/07/29 00:38:52;;;;;;;1.07;0.97;;;22.20;90.80;;;;;;5063193;28;20228;-71
2023/07/29 00:41:20;;;;;;;3.50;1.33;;;22.20;90.80;;;;;;5062084;28;20212;-72
2023/07/29 00:43:47;;;;;;;2.53;1.57;;;22.20;90.80;;;;;;5062321;28;20217;-73
2023/07/29 00:46:15;;;;;;;2.30;1.27;;;22.20;91.20;;;;;;5072094;28;20216;-72
2023/07/29 00:48:42;;;;;;;1.47;1.07;;;22.20;90.90;;;;;;5071865;28;20215;-71
2023/07/29 00:51:10;;;;;;;1.37;1.10;;;22.30;91.00;;;;;;5069933;28;20738;-72
2023/07/29 00:53:37;;;;;;;2.17;1.10;;;22.20;91.00;;;;;;5065030;28;20280;-72
2023/07/29 00:56:04;;;;;;;2.50;1.30;;;22.20;91.00;;;;;;5063176;28;20221;-72
2023/07/29 00:58:31;;;;;;;3.60;1.23;;;22.20;91.00;;;;;;5061544;28;20208;-72
2023/07/29 01:00:58;;;;;;;1.37;1.27;;;22.20;91.00;;;;;;5072104;28;20327;-72
2023/07/29 01:03:27;;;;;;;2.00;1.43;;;22.20;91.00;;;;;;5071873;28;20221;-73
2023/07/29 01:06:07;;;;;;;1.00;1.00;;;22.20;91.00;;;;;;5071188;28;20216;-73
2023/07/29 01:08:39;;;;;;;0.90;0.90;;;22.30;91.20;;;;;;5070087;28;20200;-73
2023/07/29 01:11:18;;;;;;;1.87;1.40;;;22.20;91.10;;;;;;5072592;28;20755;-73
2023/07/29 01:13:52;;;;;;;1.87;1.77;;;22.20;91.10;;;;;;5072609;28;20186;-72
2023/07/29 01:16:24;;;;;;;3.13;1.23;;;22.20;91.10;;;;;;5072295;28;20316;-73
2023/07/29 01:18:55;;;;;;;1.00;1.00;;;22.20;91.10;;;;;;5071061;28;20200;-73
2023/07/29 01:21:22;;;;;;;1.40;1.30;;;22.20;91.10;;;;;;5071456;28;20240;-72
2023/07/29 01:23:53;;;;;;;2.10;1.27;;;22.30;91.10;;;;;;5070924;28;20212;-72
2023/07/29 01:26:20;;;;;;;1.87;1.27;;;22.20;91.00;;;;;;5072172;28;20194;-73
2023/07/29 01:28:47;;;;;;;1.33;1.23;;;22.20;91.00;;;;;;5071600;28;20653;-73
2023/07/29 01:31:19;;;;;;;2.60;1.30;;;22.20;91.00;;;;;;5072293;28;20205;-72
2023/07/29 01:33:54;;;;;;;1.87;1.17;;;22.20;91.00;;;;;;5072390;28;20229;-72
2023/07/29 01:36:24;;;;;;;2.07;1.30;;;22.10;90.90;;;;;;5071885;28;20227;-72
2023/07/29 01:38:52;;;;;;;1.60;1.50;;;22.10;90.80;;;;;;5072146;28;20233;-73
2023/07/29 01:41:21;;;;;;;1.40;1.20;;;22.10;90.80;;;;;;5072041;28;20219;-72
2023/07/29 01:43:48;;;;;;;1.47;1.30;;;22.10;90.80;;;;;;5071922;28;20212;-72
2023/07/29 01:46:15;;;;;;;1.97;1.47;;;22.10;90.70;;;;;;5072336;28;20201;-72
2023/07/29 01:48:42;;;;;;;1.37;1.27;;;22.10;90.70;;;;;;5071541;28;20205;-72
2023/07/29 01:51:11;;;;;;;4.00;1.47;;;22.10;90.70;;;;;;5071972;28;20233;-73
2023/07/29 01:53:37;;;;;;;1.53;1.40;;;22.10;91.00;;;;;;5072091;28;20220;-73
2023/07/29 01:56:06;;;;;;;3.83;1.23;;;22.00;90.60;;;;;;5071795;28;20680;-73
2023/07/29 01:58:32;;;;;;;1.27;1.17;;;22.00;90.80;;;;;;5071457;28;20296;-73
2023/07/29 02:00:59;;;;;;;1.53;1.30;;;22.00;90.80;;;;;;5072263;28;20224;-72
2023/07/29 02:03:26;;;;;;;1.30;1.20;;;21.90;90.80;;;;;;5071833;28;20730;-72
2023/07/29 02:05:53;;;;;;;1.00;1.00;;;22.00;90.90;;;;;;5072119;28;20201;-73
2023/07/29 02:08:19;;;;;;;1.20;1.10;;;22.00;90.90;;;;;;5071528;28;20212;-72
2023/07/29 02:10:48;;;;;;;1.07;0.97;;;21.90;90.90;;;;;;5072110;28;20202;-73
2023/07/29 02:13:16;;;;;;;1.50;0.93;;;21.90;90.90;;;;;;5071699;28;20243;-72
2023/07/29 02:15:44;;;;;;;2.57;1.40;;;21.90;90.70;;;;;;5071823;28;20236;-73
2023/07/29 02:18:10;;;;;;;3.60;1.30;;;21.90;90.70;;;;;;5075698;28;20221;-72
2023/07/29 02:20:37;;;;;;;3.37;1.30;;;21.90;90.80;;;;;;5075719;28;20696;-72
2023/07/29 02:23:04;;;;;;;2.27;1.33;;;21.90;90.90;;;;;;5076086;28;20189;-71
2023/07/29 02:25:31;;;;;;;2.57;1.53;;;21.90;90.90;;;;;;5076071;28;20217;-71
2023/07/29 02:27:58;;;;;;;2.37;1.60;;;21.90;90.90;;;;;;5075219;28;20225;-71
2023/07/29 02:30:26;;;;;;;1.63;1.53;;;21.90;91.00;;;;;;5075662;28;20214;-72
2023/07/29 02:32:53;;;;;;;1.73;1.50;;;21.90;91.10;;;;;;5075817;28;20291;-72
2023/07/29 02:35:20;;;;;;;2.40;1.30;;;22.00;91.10;;;;;;5075864;28;20210;-72
2023/07/29 02:37:46;;;;;;;3.60;1.40;;;22.00;91.20;;;;;;5075332;28;20209;-71
2023/07/29 02:40:13;;;;;;;1.63;1.50;;;22.00;91.30;;;;;;5075363;28;20229;-73
2023/07/29 02:42:40;;;;;;;1.30;1.20;;;22.00;91.20;;;;;;5068690;28;20205;-73
2023/07/29 02:45:10;;;;;;;2.53;1.47;;;22.00;91.30;;;;;;5055514;28;20198;-73
2023/07/29 02:47:39;;;;;;;4.27;1.37;;;22.00;91.30;;;;;;5054969;28;20206;-73
2023/07/29 02:50:06;;;;;;;3.27;1.10;;;22.00;91.20;;;;;;5055430;28;20205;-73
2023/07/29 02:52:33;;;;;;;2.53;1.47;;;22.00;91.20;;;;;;5060482;28;20303;-73
2023/07/29 02:55:00;;;;;;;1.70;1.37;;;22.00;91.30;;;;;;5074943;28;20207;-73
2023/07/29 02:57:27;;;;;;;1.77;1.20;;;22.00;91.30;;;;;;5075058;28;20205;-73
2023/07/29 02:59:54;;;;;;;3.27;1.50;;;22.00;91.30;;;;;;5074773;28;20228;-72
2023/07/29 03:02:20;;;;;;;1.80;1.37;;;22.00;91.30;;;;;;5075320;28;20220;-73
2023/07/29 03:04:50;;;;;;;2.27;1.17;;;22.10;91.30;;;;;;5075136;28;20649;-73
2023/07/29 03:07:17;;;;;;;2.03;1.53;;;22.10;91.40;;;;;;5074452;28;20681;-72
2023/07/29 03:09:44;;;;;;;3.53;1.33;;;22.00;91.30;;;;;;5074652;28;20263;-72
2023/07/29 03:12:11;;;;;;;2.47;1.37;;;22.10;91.40;;;;;;5074998;28;20185;-73
2023/07/29 03:14:38;;;;;;;1.50;1.40;;;22.10;91.50;;;;;;5074615;28;20653;-72
2023/07/29 03:17:06;;;;;;;2.67;1.40;;;22.10;91.40;;;;;;5074371;28;20235;-73
2023/07/29 03:19:32;;;;;;;1.50;1.40;;;22.00;91.30;;;;;;5075326;28;20224;-72
2023/07/29 03:22:01;;;;;;;1.93;1.13;;;22.00;91.30;;;;;;5074559;28;20592;-73
2023/07/29 03:24:28;;;;;;;1.30;1.20;;;22.10;91.30;;;;;;5074467;28;20190;-73
2023/07/29 03:26:55;;;;;;;3.57;1.83;;;22.00;91.30;;;;;;5074726;28;20259;-73
2023/07/29 03:29:22;;;;;;;2.40;1.60;;;22.00;91.20;;;;;;5086680;28;20229;-72
2023/07/29 03:31:49;;;;;;;1.57;1.30;;;22.00;91.20;;;;;;5090037;28;20294;-73
2023/07/29 03:34:15;;;;;;;1.50;1.40;;;22.00;91.20;;;;;;5090680;28;20228;-73
2023/07/29 03:36:42;;;;;;;1.23;1.13;;;22.00;91.30;;;;;;5093746;28;20288;-73
2023/07/29 03:39:10;;;;;;;1.67;1.40;;;21.90;91.10;;;;;;5092401;28;20308;-73
2023/07/29 03:41:37;;;;;;;1.30;1.20;;;21.90;91.10;;;;;;5074437;28;20711;-73
2023/07/29 03:44:04;;;;;;;2.87;1.70;;;21.90;91.20;;;;;;5074340;28;20215;-72
2023/07/29 03:46:31;;;;;;;3.83;1.50;;;21.90;91.20;;;;;;5074403;28;20196;-72
2023/07/29 03:48:58;;;;;;;1.50;1.40;;;21.80;91.20;;;;;;5074034;28;20537;-72
2023/07/29 03:51:25;;;;;;;2.20;1.50;;;21.80;91.20;;;;;;5074413;28;20217;-73
2023/07/29 03:53:52;;;;;;;2.70;1.30;;;21.80;91.20;;;;;;5057997;28;20712;-73
2023/07/29 03:56:20;;;;;;;2.43;1.37;;;21.80;91.30;;;;;;5053916;28;20222;-72
2023/07/29 03:58:47;;;;;;;1.57;1.30;;;21.80;91.30;;;;;;5053583;28;20202;-72
2023/07/29 04:01:14;;;;;;;1.77;1.50;;;21.80;91.30;;;;;;5054354;28;20311;-72
2023/07/29 04:03:41;;;;;;;2.47;1.40;;;21.80;91.50;;;;;;5054135;28;20301;-73
2023/07/29 04:06:08;;;;;;;2.30;1.90;;;21.80;91.60;;;;;;5053975;28;20201;-72
2023/07/29 04:08:35;;;;;;;2.30;1.40;;;21.70;91.80;;;;;;5053278;28;20218;-72
2023/07/29 04:11:02;;;;;;;2.03;1.60;;;21.70;92.00;;;;;;5053733;28;20230;-72
2023/07/29 04:13:30;;;;;;;4.37;1.80;;;21.70;92.10;;;;;;5053912;28;20186;-72
2023/07/29 04:15:57;;;;;;;4.53;2.33;;;21.70;92.30;;;;;;5053871;28;20230;-72
2023/07/29 04:18:24;;;;;;;2.97;2.20;;;21.70;92.50;;;;;;5053313;28;20296;-72
2023/07/29 04:20:50;;;;;;;4.77;2.63;;;21.70;92.90;;;;;;5053461;28;20218;-72
2023/07/29 04:23:17;;;;;;;2.57;2.00;;;21.70;93.50;;;;;;5053430;28;20226;-73
2023/07/29 04:25:44;;;;;;;2.83;2.30;;;21.60;94.30;;;;;;5053586;28;20198;-73
2023/07/29 04:28:11;;;;;;;4.53;2.40;;;21.60;95.00;;;;;;5053419;28;20202;-72
2023/07/29 04:30:39;;;;;;;3.20;2.20;;;21.60;95.60;;;;;;5053815;28;20202;-72
2023/07/29 04:33:06;;;;;;;2.43;1.97;;;21.70;95.80;;;;;;5054070;28;20224;-72
2023/07/29 04:35:33;;;;;;;2.77;2.23;;;21.80;95.80;;;;;;5053612;28;20735;-72
2023/07/29 04:38:00;;;;;;;2.17;1.97;;;21.90;95.70;;;;;;5061923;28;20209;-72
2023/07/29 04:40:26;;;;;;;2.33;2.10;;;22.00;95.60;;;;;;5073055;28;20239;-72
2023/07/29 04:42:53;;;;;;;2.40;2.10;;;22.10;95.40;;;;;;5073229;28;20211;-72
2023/07/29 04:45:20;;;;;;;2.80;2.27;;;22.20;95.30;;;;;;5073253;28;20207;-72
2023/07/29 04:47:48;;;;;;;3.40;2.20;;;22.30;95.20;;;;;;5072881;28;20621;-72
2023/07/29 04:50:15;;;;;;;4.53;2.00;;;22.40;95.20;;;;;;5073115;28;20704;-72
2023/07/29 04:52:42;;;;;;;3.23;2.17;;;22.40;95.10;;;;;;5073112;28;20594;-72
2023/07/29 04:55:09;;;;;;;2.50;2.20;;;22.50;95.00;;;;;;5073322;28;20204;-72
2023/07/29 04:57:36;;;;;;;2.40;2.20;;;22.50;94.90;;;;;;5072945;28;20604;-72
2023/07/29 05:00:04;;;;;;;4.00;2.17;;;22.50;94.70;;;;;;5073300;28;20221;-73
2023/07/29 05:02:30;;;;;;;2.73;1.97;;;22.50;94.50;;;;;;5073357;28;20225;-72
2023/07/29 05:04:58;;;;;;;4.47;2.60;;;22.50;94.80;;;;;;5073101;28;20211;-72
2023/07/29 05:07:25;;;;;;;3.40;2.33;;;22.50;94.50;;;;;;5072570;28;20221;-73
2023/07/29 05:09:52;;;;;;;2.97;2.20;;;22.40;94.50;;;;;;5072735;28;20707;-73
2023/07/29 05:12:19;;;;;;;2.73;2.00;;;22.40;94.50;;;;;;5073085;28;20205;-73
2023/07/29 05:14:46;;;;;;;3.63;2.03;;;22.40;94.40;;;;;;5073419;28;20198;-73
2023/07/29 05:17:12;;;;;;;2.10;1.90;;;22.50;94.40;;;;;;5072693;28;20233;-73
2023/07/29 05:19:39;;;;;;;3.03;2.23;;;22.60;94.30;;;;;;5072854;28;20581;-73
2023/07/29 05:22:07;;;;;;;3.50;2.23;;;22.60;94.20;;;;;;5072733;28;20211;-72
2023/07/29 05:24:34;;;;;;;2.90;1.87;;;22.70;94.20;;;;;;5072973;28;20576;-73
2023/07/29 05:27:01;;;;;;;4.33;2.30;;;22.60;94.10;;;;;;5072980;28;20201;-73
2023/07/29 05:29:28;;;;;;;2.33;2.13;;;22.60;94.00;;;;;;5072551;28;20708;-73
2023/07/29 05:31:55;;;;;;;2.50;2.00;;;22.70;94.00;;;;;;5071297;28;20212;-73
2023/07/29 05:34:21;;;;;;;2.00;1.80;;;22.70;94.00;;;;;;5073035;28;20232;-73
2023/07/29 05:36:48;;;;;;;2.03;1.63;;;22.70;93.90;;;;;;5072239;28;20227;-73
2023/07/29 05:39:16;;;;;;;3.03;1.90;;;22.80;94.00;;;;;;5072566;28;20546;-73
2023/07/29 05:41:43;;;;;;;2.77;1.80;;;22.80;93.80;;;;;;5072762;28;20585;-73
2023/07/29 05:44:10;;;;;;;1.80;1.70;;;22.80;93.80;;;;;;5054047;28;20197;-73
2023/07/29 05:46:37;;;;;;;2.53;2.00;;;22.80;93.70;;;;;;5052346;28;20208;-73
2023/07/29 05:49:04;;;;;;;3.70;2.00;;;22.90;93.60;;;;;;5052176;28;20256;-73
2023/07/29 05:51:31;;;;;;;2.80;2.03;;;22.90;93.60;;;;;;5052092;28;20260;-73
2023/07/29 05:53:58;;;;;;;2.03;1.87;;;22.90;93.70;;;;;;5068890;28;20665;-73
2023/07/29 05:56:26;;;;;;;2.10;1.87;;;22.90;93.40;;;;;;5072229;28;20236;-73
2023/07/29 05:58:53;;;;;;;2.40;1.67;;;22.90;93.30;;;;;;5071701;28;20228;-73
2023/07/29 06:01:21;;;;;;;3.20;1.80;;;23.00;93.40;;;;;;5072241;28;20227;-73
2023/07/29 06:03:48;;;;;;;1.60;1.50;;;23.00;93.30;;;;;;5072442;28;20209;-73
2023/07/29 06:06:15;;;;;;;2.00;1.70;;;23.00;93.50;;;;;;5072398;28;20229;-73
2023/07/29 06:08:41;;;;;;;2.33;1.87;;;23.10;93.50;;;;;;5072046;28;20209;-73
2023/07/29 06:11:08;;;;;;;1.83;1.70;;;23.10;93.50;;;;;;5072549;28;20212;-73
2023/07/29 06:13:36;;;;;;;3.03;1.93;;;23.10;93.40;;;;;;5072360;28;20637;-73
2023/07/29 06:16:02;;;;;;;1.90;1.70;;;23.10;93.50;;;;;;5072150;28;20220;-73
2023/07/29 06:18:29;;;;;;;2.77;1.93;;;23.10;93.50;;;;;;5071785;28;20205;-73
2023/07/29 06:20:56;;;;;;;2.70;2.00;;;23.10;93.50;;;;;;5072398;28;20316;-73
2023/07/29 06:23:22;;;;;;;2.60;2.23;;;23.10;93.60;;;;;;5072476;28;20225;-73
2023/07/29 06:25:49;;;;;;;2.67;2.20;;;23.10;93.70;;;;;;5072765;28;20217;-73
2023/07/29 06:28:16;;;;;;;3.67;2.30;;;23.10;93.90;;;;;;5072079;28;20224;-73
2023/07/29 06:30:44;;;;;;;2.37;2.17;;;23.10;94.10;;;;;;5072213;28;20215;-73
2023/07/29 06:33:11;;;;;;;2.53;2.20;;;23.10;94.30;;;;;;5073239;28;20225;-73
2023/07/29 06:35:38;;;;;;;2.57;2.20;;;23.10;94.60;;;;;;5072089;28;20216;-73
2023/07/29 06:38:05;;;;;;;2.70;2.50;;;23.10;95.00;;;;;;5071870;28;20239;-73
2023/07/29 06:40:32;;;;;;;2.73;2.00;;;23.10;94.80;;;;;;5072327;28;20564;-73
2023/07/29 06:42:58;;;;;;;4.10;2.70;;;23.10;94.90;;;;;;5071833;28;20213;-73
2023/07/29 06:45:25;;;;;;;4.77;2.63;;;23.00;95.00;;;;;;5072370;28;20202;-73
2023/07/29 06:47:53;;;;;;;2.77;2.57;;;23.10;95.10;;;;;;5071309;28;20213;-73
2023/07/29 06:50:20;;;;;;;4.17;2.37;;;23.10;95.20;;;;;;5071988;28;20229;-73
2023/07/29 06:52:47;;;;;;;4.83;2.70;;;23.00;95.20;;;;;;5072106;28;20200;-73
2023/07/29 06:55:15;;;;;;;2.97;2.40;;;23.10;95.20;;;;;;5071985;28;20240;-73
2023/07/29 06:57:42;;;;;;;4.77;2.37;;;23.10;95.20;;;;;;5071979;28;20315;-73
2023/07/29 07:00:10;;;;;;;3.93;2.63;;;23.10;95.20;;;;;;5071932;28;20594;-73
2023/07/29 07:02:37;;;;;;;2.77;2.53;;;23.20;95.10;;;;;;5071775;28;20200;-73
2023/07/29 07:05:05;;;;;;;2.70;2.13;;;23.30;95.10;;;;;;5075713;28;20208;-72
2023/07/29 07:07:32;;;;;;;3.20;2.30;;;23.30;94.90;;;;;;5075571;28;20204;-72
2023/07/29 07:09:59;;;;;;;2.77;2.57;;;23.30;94.90;;;;;;5075051;28;20208;-72
2023/07/29 07:12:26;;;;;;;2.87;2.23;;;23.30;95.20;;;;;;5075548;28;20219;-72
2023/07/29 07:14:53;;;;;;;3.67;2.43;;;23.20;94.70;;;;;;5075727;28;20576;-72
2023/07/29 07:17:20;;;;;;;2.47;2.27;;;23.20;94.80;;;;;;5074623;28;20235;-72
2023/07/29 07:19:47;;;;;;;3.87;2.30;;;23.20;94.80;;;;;;5073502;28;20221;-72
2023/07/29 07:22:15;;;;;;;3.60;2.53;;;23.30;94.80;;;;;;5074615;28;20236;-72
2023/07/29 07:24:42;;;;;;;2.90;2.20;;;23.30;94.80;;;;;;5074555;28;20201;-72
2023/07/29 07:27:09;;;;;;;2.70;2.40;;;23.20;94.60;;;;;;5074170;28;20232;-72
2023/07/29 07:29:36;;;;;;;2.40;1.97;;;23.30;94.70;;;;;;5074368;28;20205;-73
2023/07/29 07:32:03;;;;;;;2.23;2.00;;;23.40;94.60;;;;;;5074270;28;20233;-72
2023/07/29 07:34:30;;;;;;;2.90;2.10;;;23.50;94.60;;;;;;5074993;28;20610;-72
2023/07/29 07:36:56;;;;;;;2.67;2.20;;;23.50;94.30;;;;;;5074723;28;20232;-73
2023/07/29 07:39:24;;;;;;;2.30;2.10;;;23.60;94.20;;;;;;5074469;28;20680;-72
2023/07/29 07:41:51;;;;;;;3.57;2.30;;;23.50;94.20;;;;;;5074808;28;20209;-72
2023/07/29 07:44:19;;;;;;;2.50;2.30;;;23.60;94.20;;;;;;5074897;28;20581;-72
2023/07/29 07:46:46;;;;;;;3.30;2.83;;;23.60;94.20;;;;;;5074461;28;20207;-72
2023/07/29 07:49:13;;;;;;;3.07;2.40;;;23.80;94.20;;;;;;5074237;28;20232;-72
2023/07/29 07:51:40;;;;;;;3.23;2.50;;;23.80;94.10;;;;;;5074848;28;20205;-72
2023/07/29 07:54:07;;;;;;;2.60;2.13;;;23.90;94.20;;;;;;5074252;28;20229;-72
2023/07/29 07:56:35;;;;;;;3.27;2.40;;;23.90;94.10;;;;;;5074578;28;20207;-72
2023/07/29 07:59:02;;;;;;;2.50;2.30;;;24.10;94.30;;;;;;5073877;28;20211;-72
2023/07/29 08:01:29;;;;;;;2.87;2.10;;;24.10;94.40;;;;;;5073805;28;20668;-72
2023/07/29 08:03:55;;;;;;;2.03;1.83;;;24.20;94.10;;;;;;5071944;28;20223;-72
2023/07/29 08:06:22;;;;;;;2.07;1.90;;;24.20;93.70;;;;;;5074250;28;20687;-71
2023/07/29 08:08:49;;;;;;;2.43;2.23;;;24.20;94.00;;;;;;5074049;28;20310;-72
2023/07/29 08:11:16;;;;;;;2.73;2.13;;;24.20;93.80;;;;;;5074173;28;20246;-72
2023/07/29 08:13:44;;;;;;;1.80;1.70;;;24.20;93.80;;;;;;5074316;28;20201;-72
2023/07/29 08:16:11;;;;;;;1.80;1.70;;;24.20;93.70;;;;;;5074010;28;20225;-72
2023/07/29 08:18:38;;;;;;;3.43;2.10;;;24.20;93.80;;;;;;5073570;28;20232;-72
2023/07/29 08:21:05;;;;;;;2.20;2.00;;;24.30;94.00;;;;;;5074234;28;20232;-72
2023/07/29 08:23:38;;;;;;;1.77;1.67;;;24.30;94.10;;;;;;5073972;28;20235;-72
2023/07/29 08:26:06;;;;;;;2.53;1.93;;;24.20;94.00;;;;;;5074182;28;20212;-73
2023/07/29 08:28:35;;;;;;;2.17;1.90;;;24.30;93.80;;;;;;5073723;28;20201;-72
2023/07/29 08:31:04;;;;;;;2.00;1.80;;;24.20;93.80;;;;;;5073729;28;20212;-72
2023/07/29 08:33:32;;;;;;;2.17;1.90;;;24.20;93.80;;;;;;5073693;28;20221;-72
2023/07/29 08:35:59;;;;;;;2.20;2.00;;;24.40;93.80;;;;;;5074021;28;20211;-72
2023/07/29 08:38:26;;;;;;;3.00;2.13;;;24.40;93.60;;;;;;5073296;28;20684;-72
2023/07/29 08:41:10;;;;;;;2.10;1.80;;;24.40;93.90;;;;;;5073920;28;20209;-72
2023/07/29 08:43:40;;;;;;;2.53;1.97;;;24.40;93.40;;;;;;5058970;28;20247;-72
2023/07/29 08:46:08;;;;;;;1.90;1.80;;;24.40;93.20;;;;;;5053598;28;20217;-72
2023/07/29 08:48:41;;;;;;;2.13;1.93;;;24.50;93.30;;;;;;5053276;28;20230;-72
2023/07/29 08:51:09;;;;;;;2.70;1.93;;;24.60;93.70;;;;;;5053394;28;20209;-72
2023/07/29 08:53:37;;;;;;;2.00;1.80;;;24.80;93.60;;;;;;5067435;28;20248;-72
2023/07/29 08:56:04;;;;;;;3.20;2.00;;;24.80;93.40;;;;;;5073774;28;20189;-72
2023/07/29 08:58:31;;;;;;;2.83;1.97;;;24.90;93.30;;;;;;5072543;27;20570;-72
2023/07/29 09:00:58;;;;;;;2.70;1.77;;;24.90;93.20;;;;;;5073360;28;20219;-72
2023/07/29 09:03:27;;;;;;;3.03;2.30;;;24.80;92.90;;;;;;5073445;28;20227;-72
2023/07/29 09:05:55;;;;;;;2.13;1.93;;;24.80;93.00;;;;;;5072460;28;20231;-72
2023/07/29 09:08:23;;;;;;;2.07;1.87;;;24.80;93.10;;;;;;5069493;28;20204;-72
2023/07/29 09:10:50;;;;;;;2.43;2.03;;;24.80;92.90;;;;;;5072724;28;20243;-72
2023/07/29 09:13:17;;;;;;;2.37;1.77;;;24.70;92.70;;;;;;5072747;28;20727;-72
2023/07/29 09:15:44;;;;;;;3.00;2.10;;;24.70;92.40;;;;;;5073223;28;20231;-73
2023/07/29 09:18:12;;;;;;;2.17;1.97;;;24.80;92.50;;;;;;5072032;28;20219;-72
2023/07/29 09:20:40;;;;;;;2.50;1.73;;;24.90;92.60;;;;;;5069945;28;20221;-72
2023/07/29 09:23:09;;;;;;;2.53;2.33;;;24.90;92.60;;;;;;5073391;28;20193;-72
2023/07/29 09:25:37;;;;;;;1.77;1.60;;;25.00;92.50;;;;;;5072534;28;20217;-72
2023/07/29 09:28:11;;;;;;;2.97;1.93;;;25.10;92.10;;;;;;5072663;28;20199;-72
2023/07/29 09:30:39;;;;;;;2.20;1.50;;;25.20;92.20;;;;;;5072656;28;20196;-72
2023/07/29 09:33:07;;;;;;;1.57;1.40;;;25.30;91.80;;;;;;5072622;28;20233;-72
2023/07/29 09:35:35;;;;;;;2.00;1.80;;;25.50;91.90;;;;;;5072782;28;20216;-72
2023/07/29 09:38:03;;;;;;;1.57;1.47;;;25.50;91.30;;;;;;5072565;28;20237;-72
2023/07/29 09:40:37;;;;;;;2.23;1.80;;;25.50;91.40;;;;;;5072294;28;20200;-72
2023/07/29 09:43:05;;;;;;;1.57;1.47;;;25.60;90.60;;;;;;5071972;28;20236;-71
2023/07/29 09:45:35;;;;;;;1.60;1.50;;;25.60;90.30;;;;;;5072939;28;20210;-72
2023/07/29 09:48:04;;;;;;;1.97;1.77;;;25.60;90.40;;;;;;5072534;28;20250;-72
2023/07/29 09:50:31;;;;;;;1.50;1.40;;;25.70;90.70;;;;;;5072279;28;20209;-72
2023/07/29 09:52:59;;;;;;;1.70;1.50;;;25.80;89.80;;;;;;5072575;28;20231;-72
2023/07/29 09:55:27;;;;;;;1.90;1.37;;;25.70;87.80;;;;;;5072758;28;20229;-72
2023/07/29 09:57:56;;;;;;;1.30;1.20;;;25.80;89.10;;;;;;5072472;28;20252;-72
2023/07/29 10:00:24;;;;;;;2.27;1.60;;;25.90;88.70;;;;;;5072117;28;20585;-72
2023/07/29 10:02:51;;;;;;;2.77;1.60;;;25.90;87.60;;;;;;5072363;28;20197;-72
2023/07/29 10:05:18;;;;;;;1.80;1.60;;;26.00;87.90;;;;;;5072284;28;20215;-72
2023/07/29 10:07:47;;;;;;;1.40;1.30;;;26.00;87.70;;;;;;5072259;28;20197;-72
2023/07/29 10:10:14;;;;;;;1.80;1.70;;;26.10;87.50;;;;;;5071828;28;20204;-72
2023/07/29 10:12:43;;;;;;;1.40;1.30;;;26.20;87.30;;;;;;5072610;28;20207;-72
2023/07/29 10:15:10;;;;;;;1.70;1.50;;;26.20;87.10;;;;;;5072238;28;20221;-72
2023/07/29 10:17:39;;;;;;;2.17;1.57;;;26.20;87.50;;;;;;5072496;28;20229;-72
2023/07/29 10:20:07;;;;;;;1.87;1.50;;;26.20;86.10;;;;;;5072032;28;20316;-72
2023/07/29 10:22:37;;;;;;;2.30;1.47;;;26.20;86.30;;;;;;5072087;28;20730;-72
2023/07/29 10:25:05;;;;;;;1.67;1.57;;;26.10;86.40;;;;;;5072006;28;20204;-72
2023/07/29 10:27:41;;;;;;;1.80;1.70;;;26.20;86.90;;;;;;5071516;28;20221;-72
2023/07/29 10:30:12;;;;;;;1.93;1.83;;;26.30;86.20;;;;;;5071128;28;20238;-72
2023/07/29 10:32:39;;;;;;;1.63;1.50;;;26.30;86.40;;;;;;5070795;28;20201;-72
2023/07/29 10:35:07;;;;;;;2.83;1.80;;;26.30;85.40;;;;;;5071178;28;20198;-72
2023/07/29 10:37:34;;;;;;;1.70;1.43;;;26.30;85.40;;;;;;5073127;28;20235;-72
2023/07/29 10:40:01;;;;;;;1.50;1.40;;;26.40;85.10;;;;;;5074269;28;20216;-72
2023/07/29 10:42:28;;;;;;;1.77;1.50;;;26.50;84.70;;;;;;5075426;28;20205;-72
2023/07/29 10:44:54;;;;;;;1.37;1.23;;;26.60;83.40;;;;;;5075998;28;20247;-72
2023/07/29 10:47:24;;;;;;;2.00;1.40;;;26.60;83.00;;;;;;5075825;28;20211;-72
2023/07/29 10:49:54;;;;;;;2.50;1.40;;;26.70;81.80;;;;;;5075533;28;20229;-72
2023/07/29 10:52:32;;;;;;;1.33;1.00;;;26.90;83.20;;;;;;5075998;28;20236;-72
2023/07/29 10:54:59;;;;;;;1.67;1.10;;;27.10;80.30;;;;;;5075301;28;20207;-72
2023/07/29 10:57:37;;;;;;;2.70;1.50;;;27.30;80.10;;;;;;5073351;28;20209;-72
2023/07/29 11:00:06;;;;;;;1.50;1.40;;;27.40;78.80;;;;;;5075256;28;20563;-72
2023/07/29 11:02:36;;;;;;;2.00;1.73;;;27.60;78.50;;;;;;5073606;28;20207;-72
2023/07/29 11:05:07;;;;;;;2.83;1.40;;;27.60;76.30;;;;;;5056121;28;20202;-72
2023/07/29 11:07:44;;;;;;;1.50;1.40;;;27.60;74.10;;;;;;5062126;28;20205;-72
2023/07/29 11:10:13;;;;;;;2.43;1.60;;;27.70;73.50;;;;;;5075332;28;20196;-72
2023/07/29 11:12:51;;;;;;;1.53;1.43;;;27.70;74.10;;;;;;5074318;28;20237;-73
2023/07/29 11:15:20;;;;;;;2.03;1.40;;;27.50;73.30;;;;;;5074529;28;20214;-72
2023/07/29 11:17:50;;;;;;;1.40;1.30;;;27.60;74.70;;;;;;5074371;28;20360;-72
2023/07/29 11:20:18;;;;;;;1.37;1.27;;;27.80;73.20;;;;;;5073827;28;20202;-71
2023/07/29 11:22:45;;;;;;;2.40;1.50;;;28.00;73.50;;;;;;5073939;28;20227;-72
2023/07/29 11:25:13;;;;;;;1.40;1.30;;;28.10;70.10;;;;;;5074544;28;20229;-72
2023/07/29 11:27:40;;;;;;;1.50;1.30;;;27.90;68.20;;;;;;5074983;28;20205;-72
2023/07/29 11:30:10;;;;;;;3.17;1.27;;;28.00;69.10;;;;;;5075076;28;20224;-72
2023/07/29 11:32:38;;;;;;;1.57;1.47;;;28.10;67.70;;;;;;5074926;28;20307;-72
2023/07/29 11:35:09;;;;;;;2.17;1.37;;;28.10;67.20;;;;;;5074810;28;20216;-72
2023/07/29 11:37:36;;;;;;;1.53;1.40;;;28.20;67.70;;;;;;5074700;28;20195;-72
2023/07/29 11:40:05;;;;;;;2.00;1.40;;;28.30;68.20;;;;;;5074237;28;20219;-73
2023/07/29 11:42:35;;;;;;;2.40;1.60;;;28.30;66.50;;;;;;5074732;28;20593;-72
2023/07/29 11:45:03;;;;;;;1.70;1.60;;;28.30;64.80;;;;;;5075164;28;20240;-72
2023/07/29 11:47:30;;;;;;;1.43;1.33;;;28.40;65.10;;;;;;5075043;28;20214;-72
2023/07/29 11:50:00;;;;;;;2.17;1.80;;;28.30;65.40;;;;;;5073769;28;20229;-72
2023/07/29 11:52:29;;;;;;;1.60;1.50;;;28.20;65.40;;;;;;5074566;28;20245;-72
2023/07/29 11:54:56;;;;;;;1.67;1.30;;;28.10;65.70;;;;;;5074822;28;20234;-72
2023/07/29 11:57:24;;;;;;;1.87;1.60;;;28.00;66.50;;;;;;5074580;28;20192;-72
2023/07/29 11:59:51;;;;;;;1.63;1.53;;;27.90;67.00;;;;;;5074353;28;20237;-72
2023/07/29 12:02:20;;;;;;;1.70;1.57;;;27.80;67.70;;;;;;5074659;28;20201;-72
2023/07/29 12:04:49;;;;;;;2.50;1.63;;;27.90;69.10;;;;;;5074545;28;20201;-72
2023/07/29 12:07:17;;;;;;;2.37;1.70;;;28.10;70.10;;;;;;5074116;28;20236;-72
2023/07/29 12:09:47;;;;;;;2.33;1.80;;;28.20;70.20;;;;;;5074422;28;20551;-72
2023/07/29 12:12:13;;;;;;;2.03;1.83;;;28.30;69.90;;;;;;5073491;28;20224;-72
2023/07/29 12:14:45;;;;;;;1.80;1.70;;;28.40;69.10;;;;;;5073361;28;20215;-72
2023/07/29 12:17:12;;;;;;;1.63;1.40;;;28.50;69.40;;;;;;5073441;28;20230;-72
2023/07/29 12:19:40;;;;;;;3.67;1.70;;;28.60;70.50;;;;;;5105347;28;20229;-72
2023/07/29 12:22:09;;;;;;;2.63;1.60;;;28.70;68.90;;;;;;5072556;28;20538;-72
2023/07/29 12:24:41;;;;;;;1.80;1.70;;;28.70;67.50;;;;;;5073314;28;20187;-72
2023/07/29 12:27:16;;;;;;;1.77;1.67;;;28.80;67.70;;;;;;5073245;28;20650;-72
2023/07/29 12:29:44;;;;;;;1.70;1.60;;;28.90;67.60;;;;;;5073711;28;20233;-72
2023/07/29 12:32:11;;;;;;;2.20;1.60;;;29.00;67.60;;;;;;5073944;28;20230;-72
2023/07/29 12:34:39;;;;;;;1.70;1.60;;;29.00;64.80;;;;;;5074043;28;20229;-72
2023/07/29 12:37:07;;;;;;;1.60;1.50;;;28.80;65.50;;;;;;5073676;28;20204;-72
2023/07/29 12:39:36;;;;;;;1.60;1.50;;;29.00;64.30;;;;;;5073221;28;20271;-72
2023/07/29 12:42:04;;;;;;;1.77;1.57;;;29.10;62.50;;;;;;5072068;28;20219;-73
2023/07/29 12:44:34;;;;;;;1.83;1.73;;;29.10;63.50;;;;;;5053621;28;20234;-72
2023/07/29 12:47:02;;;;;;;1.80;1.70;;;29.20;62.60;;;;;;5053777;28;20604;-72
2023/07/29 12:49:29;;;;;;;2.07;1.70;;;29.20;62.40;;;;;;5085229;28;20235;-73
2023/07/29 12:51:56;;;;;;;1.47;1.37;;;29.30;62.10;;;;;;5053533;28;20212;-72